Concho, Oklahoma
Current Conditions -  °F | °C
As of 5:55 AM on Thursday 23 Oct 2014 (Local Time) from KRQO Reporting Station
Overcast Overcast  
Wind Chill: 61°   Ceiling: 5000
Heat Index: 61°   Visibility: 10mi
Dew Point: 57°   Wind: 10mph
Humidity: 88%   Direction: 170°S
Pressure: 30.1"   Gusts: NA
Location:  35.62°N, 97.99°W
Report Text: KRQO 231055Z AUTO 17009KT 10SM OVC050 16/14 A3010 RMK AO2
Loading
Personal Weather Stations






























Interactive Weather Map
Tropical Storm Tracking
New forecast layout! Learn more

10-Day Weather Forecast

Advertisements
Track Severe Weather on mobile